Fort Wayne, IN (46801)

10:14 AM EST on February 12, 2016 (GMT -0500)
Hillegas Road, Ft.Wayne, IN | | Change Station
CLOSE
Current Station
Personal Weather Station
Location: Fort Wayne, IN
Elevation: 823 ft
Nearby Weather Stations

Elev 823 ft 41.10 °N, 85.19 °W | Updated 7 minutes ago

Overcast
Overcast
20.3 °F
Feels Like 14 °F
N
4.2
Wind Variable Wind from SSE

Today
High -- | Low -- °F
--% Chance of Precip.
Yesterday
High -- | Low -- °F
Precip. -- in
Pressure 30.17 in
Visibility 10.0 miles
Clouds Overcast 5500 ft
Windchill 14 °F
Dew Point 13 °F
Humidity 74%
Rainfall 0.00 in
Snow Depth Not available.
7:39 AM 6:10 PM
Waxing Crescent, 21% visible
METAR KFWA 121454Z 24012KT 10SM OVC055 M07/M12 A3012 RMK AO2 SLP215 T10671122 56012
Pressure 30.17 in
Visibility 10.0 miles
Clouds Overcast 5500 ft
Windchill 14 °F
Dew Point 13 °F
Humidity 74%
Rainfall 0.00 in
Snow Depth Not available.
7:39 AM 6:10 PM
Waxing Crescent, 21% visible
METAR KFWA 121454Z 24012KT 10SM OVC055 M07/M12 A3012 RMK AO2 SLP215 T10671122 56012

10-Day Weather Forecast

Almanac

Astronomy

Feb. 12, 2016 Rise Set
Actual Time
Civil Twilight
Nautical Twilight
Astronomical Twilight
Moon
Length of Visible Light
Length of Day
Tomorrow will be .
, % of the Moon is Illuminated

Today's Extremes

State Highs State Lows

Community

WunderPhotos

Upload Photos

1,892,325 photos uploaded!

WunderBlog® & News

Nearby

Air Quality

  Air Quality AQ Index Pollutant
Not available.

Snow Depth

Station Depth Elevation

Earthquake Activity

City Distance Mag. Time & Date
Minimum magnitude displayed is 2.5.

Coastal Water Temperatures

Place Temperature

Stations

Nearby Weather Stations

Station Location Temp. Windchill Dew Point Humidity Wind Precip. Elev Updated Type
                   

Watches & Warnings

There are currently no watches in effect.